sensor_id;sensor_type;location;lat;lon;timestamp;temperature;humidity
9537;DHT22;4807;48.024;11.726;2024-03-02T00:02:33;4.80;99.90
9537;DHT22;4807;48.024;11.726;2024-03-02T00:05:42;4.80;99.90
9537;DHT22;4807;48.024;11.726;2024-03-02T00:08:51;4.80;99.90
9537;DHT22;4807;48.024;11.726;2024-03-02T00:12:00;4.90;99.90
9537;DHT22;4807;48.024;11.726;2024-03-02T00:18:54;4.80;99.90
9537;DHT22;4807;48.024;11.726;2024-03-02T00:22:04;4.90;99.90
9537;DHT22;4807;48.024;11.726;2024-03-02T00:25:13;4.90;99.90
9537;DHT22;4807;48.024;11.726;2024-03-02T00:28:23;4.90;99.90
9537;DHT22;4807;48.024;11.726;2024-03-02T00:31:32;4.80;99.90
9537;DHT22;4807;48.024;11.726;2024-03-02T00:34:40;4.90;99.90
9537;DHT22;4807;48.024;11.726;2024-03-02T00:37:50;4.90;99.90
9537;DHT22;4807;48.024;11.726;2024-03-02T00:41:00;5.00;99.90
9537;DHT22;4807;48.024;11.726;2024-03-02T00:44:15;5.00;99.90
9537;DHT22;4807;48.024;11.726;2024-03-02T00:47:28;5.00;99.90
9537;DHT22;4807;48.024;11.726;2024-03-02T00:50:36;5.00;99.90
9537;DHT22;4807;48.024;11.726;2024-03-02T00:53:46;4.00;99.90
9537;DHT22;4807;48.024;11.726;2024-03-02T00:56:55;5.10;99.90
9537;DHT22;4807;48.024;11.726;2024-03-02T01:00:05;5.00;99.90
9537;DHT22;4807;48.024;11.726;2024-03-02T01:03:21;5.00;99.90
9537;DHT22;4807;48.024;11.726;2024-03-02T01:06:30;4.90;99.90
9537;DHT22;4807;48.024;11.726;2024-03-02T01:09:40;4.90;99.90
9537;DHT22;4807;48.024;11.726;2024-03-02T01:12:48;5.00;99.90
9537;DHT22;4807;48.024;11.726;2024-03-02T01:15:56;5.00;99.90
9537;DHT22;4807;48.024;11.726;2024-03-02T01:19:05;5.00;99.90
9537;DHT22;4807;48.024;11.726;2024-03-02T01:22:13;5.00;99.90
9537;DHT22;4807;48.024;11.726;2024-03-02T01:25:23;4.90;99.90
9537;DHT22;4807;48.024;11.726;2024-03-02T01:28:31;5.00;99.90
9537;DHT22;4807;48.024;11.726;2024-03-02T01:31:40;5.00;99.90
9537;DHT22;4807;48.024;11.726;2024-03-02T01:34:49;5.00;99.90
9537;DHT22;4807;48.024;11.726;2024-03-02T01:37:58;5.00;99.90
9537;DHT22;4807;48.024;11.726;2024-03-02T01:41:08;4.90;99.90
9537;DHT22;4807;48.024;11.726;2024-03-02T01:44:16;5.00;99.90
9537;DHT22;4807;48.024;11.726;2024-03-02T01:47:24;5.00;99.90
9537;DHT22;4807;48.024;11.726;2024-03-02T01:50:33;4.90;99.90
9537;DHT22;4807;48.024;11.726;2024-03-02T01:53:42;4.90;99.90
9537;DHT22;4807;48.024;11.726;2024-03-02T01:56:52;4.90;99.90
9537;DHT22;4807;48.024;11.726;2024-03-02T02:00:00;4.90;99.90
9537;DHT22;4807;48.024;11.726;2024-03-02T02:03:17;4.90;99.90
9537;DHT22;4807;48.024;11.726;2024-03-02T02:06:25;4.80;99.90
9537;DHT22;4807;48.024;11.726;2024-03-02T02:09:34;4.90;99.90
9537;DHT22;4807;48.024;11.726;2024-03-02T02:12:44;4.90;99.90
9537;DHT22;4807;48.024;11.726;2024-03-02T02:15:53;4.90;99.90
9537;DHT22;4807;48.024;11.726;2024-03-02T02:19:01;5.00;99.90
9537;DHT22;4807;48.024;11.726;2024-03-02T02:22:11;4.80;99.90
9537;DHT22;4807;48.024;11.726;2024-03-02T02:25:19;4.80;99.90
9537;DHT22;4807;48.024;11.726;2024-03-02T02:28:27;4.90;99.90
9537;DHT22;4807;48.024;11.726;2024-03-02T02:31:39;4.90;99.90
9537;DHT22;4807;48.024;11.726;2024-03-02T02:34:52;5.10;99.90
9537;DHT22;4807;48.024;11.726;2024-03-02T02:38:02;5.10;99.90
9537;DHT22;4807;48.024;11.726;2024-03-02T02:41:11;5.10;99.90
9537;DHT22;4807;48.024;11.726;2024-03-02T02:44:19;5.10;99.90
9537;DHT22;4807;48.024;11.726;2024-03-02T02:47:27;5.00;99.90
9537;DHT22;4807;48.024;11.726;2024-03-02T02:50:37;4.30;99.90
9537;DHT22;4807;48.024;11.726;2024-03-02T02:53:46;5.10;99.90
9537;DHT22;4807;48.024;11.726;2024-03-02T02:56:54;5.10;99.90
9537;DHT22;4807;48.024;11.726;2024-03-02T03:00:04;5.00;99.90
9537;DHT22;4807;48.024;11.726;2024-03-02T03:03:17;5.00;99.90
9537;DHT22;4807;48.024;11.726;2024-03-02T03:06:25;5.00;99.90
9537;DHT22;4807;48.024;11.726;2024-03-02T03:09:37;5.00;99.90
9537;DHT22;4807;48.024;11.726;2024-03-02T03:12:45;5.00;99.90
9537;DHT22;4807;48.024;11.726;2024-03-02T03:15:54;5.00;99.90
9537;DHT22;4807;48.024;11.726;2024-03-02T03:19:02;5.00;99.90
9537;DHT22;4807;48.024;11.726;2024-03-02T03:22:11;5.00;99.90
9537;DHT22;4807;48.024;11.726;2024-03-02T03:25:21;4.90;99.90
9537;DHT22;4807;48.024;11.726;2024-03-02T03:28:29;5.00;99.90
9537;DHT22;4807;48.024;11.726;2024-03-02T03:31:37;5.00;99.90
9537;DHT22;4807;48.024;11.726;2024-03-02T03:34:46;5.10;99.90
9537;DHT22;4807;48.024;11.726;2024-03-02T03:37:55;5.20;99.90
9537;DHT22;4807;48.024;11.726;2024-03-02T03:41:05;5.20;99.90
9537;DHT22;4807;48.024;11.726;2024-03-02T03:44:13;5.10;99.90
9537;DHT22;4807;48.024;11.726;2024-03-02T03:47:21;5.10;99.90
9537;DHT22;4807;48.024;11.726;2024-03-02T03:50:29;5.00;99.90
9537;DHT22;4807;48.024;11.726;2024-03-02T03:53:38;4.90;99.90
9537;DHT22;4807;48.024;11.726;2024-03-02T03:56:48;4.90;99.90
9537;DHT22;4807;48.024;11.726;2024-03-02T03:59:57;4.80;99.90
9537;DHT22;4807;48.024;11.726;2024-03-02T04:03:05;4.70;99.90
9537;DHT22;4807;48.024;11.726;2024-03-02T04:06:13;4.60;99.90
9537;DHT22;4807;48.024;11.726;2024-03-02T04:09:24;4.70;99.90
9537;DHT22;4807;48.024;11.726;2024-03-02T04:12:34;4.70;99.90
9537;DHT22;4807;48.024;11.726;2024-03-02T04:15:42;4.80;99.90
9537;DHT22;4807;48.024;11.726;2024-03-02T04:18:50;4.70;99.90
9537;DHT22;4807;48.024;11.726;2024-03-02T04:21:59;4.70;99.90
9537;DHT22;4807;48.024;11.726;2024-03-02T04:25:21;4.70;99.90
9537;DHT22;4807;48.024;11.726;2024-03-02T04:28:30;4.70;99.90
9537;DHT22;4807;48.024;11.726;2024-03-02T04:31:39;4.70;99.90
9537;DHT22;4807;48.024;11.726;2024-03-02T04:34:50;4.90;99.90
9537;DHT22;4807;48.024;11.726;2024-03-02T04:37:59;4.70;99.90
9537;DHT22;4807;48.024;11.726;2024-03-02T04:41:07;4.80;99.90
9537;DHT22;4807;48.024;11.726;2024-03-02T04:44:17;4.90;99.90
9537;DHT22;4807;48.024;11.726;2024-03-02T04:47:25;5.00;99.90
9537;DHT22;4807;48.024;11.726;2024-03-02T04:50:34;5.00;99.90
9537;DHT22;4807;48.024;11.726;2024-03-02T04:53:42;5.00;99.90
9537;DHT22;4807;48.024;11.726;2024-03-02T04:56:51;4.90;99.90
9537;DHT22;4807;48.024;11.726;2024-03-02T05:00:01;5.00;99.90
9537;DHT22;4807;48.024;11.726;2024-03-02T05:03:13;5.10;99.90
9537;DHT22;4807;48.024;11.726;2024-03-02T05:06:22;5.10;99.90
9537;DHT22;4807;48.024;11.726;2024-03-02T05:09:30;5.00;99.90
9537;DHT22;4807;48.024;11.726;2024-03-02T05:12:39;5.00;99.90
9537;DHT22;4807;48.024;11.726;2024-03-02T05:16:08;5.10;99.90
9537;DHT22;4807;48.024;11.726;2024-03-02T05:19:17;5.00;99.90
9537;DHT22;4807;48.024;11.726;2024-03-02T05:22:25;5.00;99.90
9537;DHT22;4807;48.024;11.726;2024-03-02T05:25:33;5.00;99.90
9537;DHT22;4807;48.024;11.726;2024-03-02T05:28:42;5.00;99.90
9537;DHT22;4807;48.024;11.726;2024-03-02T05:31:51;4.90;99.90
9537;DHT22;4807;48.024;11.726;2024-03-02T05:35:00;4.80;99.90
9537;DHT22;4807;48.024;11.726;2024-03-02T05:38:09;4.80;99.90
9537;DHT22;4807;48.024;11.726;2024-03-02T05:41:18;4.70;99.90
9537;DHT22;4807;48.024;11.726;2024-03-02T05:44:26;4.90;99.90
9537;DHT22;4807;48.024;11.726;2024-03-02T05:47:36;4.70;99.90
9537;DHT22;4807;48.024;11.726;2024-03-02T05:50:45;4.70;99.90
9537;DHT22;4807;48.024;11.726;2024-03-02T05:53:53;4.70;99.90
9537;DHT22;4807;48.024;11.726;2024-03-02T05:57:02;4.70;99.90
9537;DHT22;4807;48.024;11.726;2024-03-02T06:00:28;4.60;99.90
9537;DHT22;4807;48.024;11.726;2024-03-02T06:03:39;4.70;99.90
9537;DHT22;4807;48.024;11.726;2024-03-02T06:06:48;4.80;99.90
9537;DHT22;4807;48.024;11.726;2024-03-02T06:09:57;4.80;99.90
9537;DHT22;4807;48.024;11.726;2024-03-02T06:13:06;4.90;99.90
9537;DHT22;4807;48.024;11.726;2024-03-02T06:16:15;5.00;99.90
9537;DHT22;4807;48.024;11.726;2024-03-02T06:19:25;5.00;99.90
9537;DHT22;4807;48.024;11.726;2024-03-02T06:22:35;5.10;99.90
9537;DHT22;4807;48.024;11.726;2024-03-02T06:25:43;5.10;99.90
9537;DHT22;4807;48.024;11.726;2024-03-02T06:28:52;5.10;99.90
9537;DHT22;4807;48.024;11.726;2024-03-02T06:32:01;5.10;99.90
9537;DHT22;4807;48.024;11.726;2024-03-02T06:35:11;5.30;99.90
9537;DHT22;4807;48.024;11.726;2024-03-02T06:38:19;5.30;99.90
9537;DHT22;4807;48.024;11.726;2024-03-02T06:41:27;5.30;99.90
9537;DHT22;4807;48.024;11.726;2024-03-02T06:44:36;5.40;99.90
9537;DHT22;4807;48.024;11.726;2024-03-02T06:47:44;5.40;99.90
9537;DHT22;4807;48.024;11.726;2024-03-02T06:50:54;5.50;99.90
9537;DHT22;4807;48.024;11.726;2024-03-02T06:54:03;5.60;99.90
9537;DHT22;4807;48.024;11.726;2024-03-02T06:57:11;5.70;99.90
9537;DHT22;4807;48.024;11.726;2024-03-02T07:00:20;5.80;99.90
9537;DHT22;4807;48.024;11.726;2024-03-02T07:03:30;5.90;99.90
9537;DHT22;4807;48.024;11.726;2024-03-02T07:06:41;5.90;99.90
9537;DHT22;4807;48.024;11.726;2024-03-02T07:09:49;5.90;99.90
9537;DHT22;4807;48.024;11.726;2024-03-02T07:12:58;6.00;99.90
9537;DHT22;4807;48.024;11.726;2024-03-02T07:16:06;6.00;99.90
9537;DHT22;4807;48.024;11.726;2024-03-02T07:19:34;6.10;99.90
9537;DHT22;4807;48.024;11.726;2024-03-02T07:22:44;6.20;99.90
9537;DHT22;4807;48.024;11.726;2024-03-02T07:25:53;6.30;99.90
9537;DHT22;4807;48.024;11.726;2024-03-02T07:29:06;6.40;99.90
9537;DHT22;4807;48.024;11.726;2024-03-02T07:32:14;6.50;99.90
9537;DHT22;4807;48.024;11.726;2024-03-02T07:35:22;6.70;99.90
9537;DHT22;4807;48.024;11.726;2024-03-02T07:38:35;6.80;99.90
9537;DHT22;4807;48.024;11.726;2024-03-02T07:41:45;6.80;99.90
9537;DHT22;4807;48.024;11.726;2024-03-02T07:44:54;6.90;99.90
9537;DHT22;4807;48.024;11.726;2024-03-02T07:48:03;6.90;99.90
9537;DHT22;4807;48.024;11.726;2024-03-02T07:51:11;7.00;99.90
9537;DHT22;4807;48.024;11.726;2024-03-02T07:54:22;7.00;99.90
9537;DHT22;4807;48.024;11.726;2024-03-02T07:57:30;7.00;99.90
9537;DHT22;4807;48.024;11.726;2024-03-02T08:00:39;6.90;99.90
9537;DHT22;4807;48.024;11.726;2024-03-02T08:03:47;6.90;99.90
9537;DHT22;4807;48.024;11.726;2024-03-02T08:06:57;7.10;99.90
9537;DHT22;4807;48.024;11.726;2024-03-02T08:10:08;7.20;99.90
9537;DHT22;4807;48.024;11.726;2024-03-02T08:13:16;7.40;99.90
9537;DHT22;4807;48.024;11.726;2024-03-02T08:16:25;7.40;99.90
9537;DHT22;4807;48.024;11.726;2024-03-02T08:19:33;7.80;99.90
9537;DHT22;4807;48.024;11.726;2024-03-02T08:22:42;7.90;99.90
9537;DHT22;4807;48.024;11.726;2024-03-02T08:25:52;7.90;99.90
9537;DHT22;4807;48.024;11.726;2024-03-02T08:29:00;7.80;99.90
9537;DHT22;4807;48.024;11.726;2024-03-02T08:32:11;8.00;99.90
9537;DHT22;4807;48.024;11.726;2024-03-02T08:35:19;8.40;99.90
9537;DHT22;4807;48.024;11.726;2024-03-02T08:38:29;8.60;99.90
9537;DHT22;4807;48.024;11.726;2024-03-02T08:41:39;8.80;99.90
9537;DHT22;4807;48.024;11.726;2024-03-02T08:44:47;9.00;99.90
9537;DHT22;4807;48.024;11.726;2024-03-02T08:47:56;9.30;99.90
9537;DHT22;4807;48.024;11.726;2024-03-02T08:51:04;9.70;99.90
9537;DHT22;4807;48.024;11.726;2024-03-02T08:54:14;10.10;99.90
9537;DHT22;4807;48.024;11.726;2024-03-02T08:57:24;10.30;99.90
9537;DHT22;4807;48.024;11.726;2024-03-02T09:00:32;10.50;99.90
9537;DHT22;4807;48.024;11.726;2024-03-02T09:03:41;10.80;99.90
9537;DHT22;4807;48.024;11.726;2024-03-02T09:06:51;10.80;99.60
9537;DHT22;4807;48.024;11.726;2024-03-02T09:10:00;10.70;99.60
9537;DHT22;4807;48.024;11.726;2024-03-02T09:13:10;10.90;99.90
9537;DHT22;4807;48.024;11.726;2024-03-02T09:16:19;11.00;99.50
9537;DHT22;4807;48.024;11.726;2024-03-02T09:19:27;11.20;99.50
9537;DHT22;4807;48.024;11.726;2024-03-02T09:22:35;11.50;99.20
9537;DHT22;4807;48.024;11.726;2024-03-02T09:25:43;11.90;97.90
9537;DHT22;4807;48.024;11.726;2024-03-02T09:28:53;12.20;97.10
9537;DHT22;4807;48.024;11.726;2024-03-02T09:32:01;12.10;95.60
9537;DHT22;4807;48.024;11.726;2024-03-02T09:35:10;11.80;96.00
9537;DHT22;4807;48.024;11.726;2024-03-02T09:38:20;11.50;96.60
9537;DHT22;4807;48.024;11.726;2024-03-02T09:41:29;11.30;96.90
9537;DHT22;4807;48.024;11.726;2024-03-02T09:44:39;11.30;96.90
9537;DHT22;4807;48.024;11.726;2024-03-02T09:47:47;11.20;96.50
9537;DHT22;4807;48.024;11.726;2024-03-02T09:50:56;11.20;96.70
9537;DHT22;4807;48.024;11.726;2024-03-02T09:54:05;11.30;96.80
9537;DHT22;4807;48.024;11.726;2024-03-02T09:57:28;11.40;96.80
9537;DHT22;4807;48.024;11.726;2024-03-02T10:00:37;11.60;96.50
9537;DHT22;4807;48.024;11.726;2024-03-02T10:03:47;11.80;96.10
9537;DHT22;4807;48.024;11.726;2024-03-02T10:07:18;12.00;95.40
9537;DHT22;4807;48.024;11.726;2024-03-02T10:10:34;12.10;95.30
9537;DHT22;4807;48.024;11.726;2024-03-02T10:13:47;12.10;95.20
9537;DHT22;4807;48.024;11.726;2024-03-02T10:17:02;12.20;94.30
9537;DHT22;4807;48.024;11.726;2024-03-02T10:20:26;12.00;94.50
9537;DHT22;4807;48.024;11.726;2024-03-02T10:23:36;12.00;94.80
9537;DHT22;4807;48.024;11.726;2024-03-02T10:26:45;12.10;94.90
9537;DHT22;4807;48.024;11.726;2024-03-02T10:29:54;12.20;95.20
9537;DHT22;4807;48.024;11.726;2024-03-02T10:33:06;12.30;95.50
9537;DHT22;4807;48.024;11.726;2024-03-02T10:36:15;12.60;94.80
9537;DHT22;4807;48.024;11.726;2024-03-02T10:39:24;12.70;93.90
9537;DHT22;4807;48.024;11.726;2024-03-02T10:42:34;12.70;94.30
9537;DHT22;4807;48.024;11.726;2024-03-02T10:45:46;12.60;94.10
9537;DHT22;4807;48.024;11.726;2024-03-02T10:48:59;12.70;94.00
9537;DHT22;4807;48.024;11.726;2024-03-02T10:52:13;12.70;93.90
9537;DHT22;4807;48.024;11.726;2024-03-02T10:55:21;12.80;93.50
9537;DHT22;4807;48.024;11.726;2024-03-02T10:58:32;12.80;93.60
9537;DHT22;4807;48.024;11.726;2024-03-02T11:01:43;12.60;94.00
9537;DHT22;4807;48.024;11.726;2024-03-02T11:04:56;12.20;93.80
9537;DHT22;4807;48.024;11.726;2024-03-02T11:08:17;12.40;94.20
9537;DHT22;4807;48.024;11.726;2024-03-02T11:11:31;12.40;94.20
9537;DHT22;4807;48.024;11.726;2024-03-02T11:14:42;12.40;94.40
9537;DHT22;4807;48.024;11.726;2024-03-02T11:17:51;12.60;94.40
9537;DHT22;4807;48.024;11.726;2024-03-02T11:21:02;12.70;94.60
9537;DHT22;4807;48.024;11.726;2024-03-02T11:24:32;12.90;92.70
9537;DHT22;4807;48.024;11.726;2024-03-02T11:28:04;12.90;93.10
9537;DHT22;4807;48.024;11.726;2024-03-02T11:31:16;12.90;93.20
9537;DHT22;4807;48.024;11.726;2024-03-02T11:34:29;12.90;93.70
9537;DHT22;4807;48.024;11.726;2024-03-02T11:37:40;13.00;93.00
9537;DHT22;4807;48.024;11.726;2024-03-02T11:40:48;13.10;93.20
9537;DHT22;4807;48.024;11.726;2024-03-02T11:43:57;13.10;93.10
9537;DHT22;4807;48.024;11.726;2024-03-02T11:47:08;12.90;93.00
9537;DHT22;4807;48.024;11.726;2024-03-02T11:50:28;13.00;93.50
9537;DHT22;4807;48.024;11.726;2024-03-02T11:53:39;12.90;93.50
9537;DHT22;4807;48.024;11.726;2024-03-02T11:56:49;13.10;93.00
9537;DHT22;4807;48.024;11.726;2024-03-02T11:59:58;13.00;92.90
9537;DHT22;4807;48.024;11.726;2024-03-02T12:03:13;13.00;93.50
9537;DHT22;4807;48.024;11.726;2024-03-02T12:06:22;13.10;93.40
9537;DHT22;4807;48.024;11.726;2024-03-02T12:09:33;13.00;93.40
9537;DHT22;4807;48.024;11.726;2024-03-02T12:12:42;12.80;93.40
9537;DHT22;4807;48.024;11.726;2024-03-02T12:15:53;12.70;93.70
9537;DHT22;4807;48.024;11.726;2024-03-02T12:19:03;12.80;93.80
9537;DHT22;4807;48.024;11.726;2024-03-02T12:22:11;12.90;92.90
9537;DHT22;4807;48.024;11.726;2024-03-02T12:25:23;13.00;92.70
9537;DHT22;4807;48.024;11.726;2024-03-02T12:28:32;13.10;92.20
9537;DHT22;4807;48.024;11.726;2024-03-02T12:31:42;12.90;91.80
9537;DHT22;4807;48.024;11.726;2024-03-02T12:34:52;12.90;91.80
9537;DHT22;4807;48.024;11.726;2024-03-02T12:38:00;12.80;92.20
9537;DHT22;4807;48.024;11.726;2024-03-02T12:41:10;12.80;92.50
9537;DHT22;4807;48.024;11.726;2024-03-02T12:44:19;12.80;92.20
9537;DHT22;4807;48.024;11.726;2024-03-02T12:47:28;12.80;92.80
9537;DHT22;4807;48.024;11.726;2024-03-02T12:50:39;12.80;92.50
9537;DHT22;4807;48.024;11.726;2024-03-02T12:53:53;12.60;92.20
9537;DHT22;4807;48.024;11.726;2024-03-02T12:57:06;12.50;92.30
9537;DHT22;4807;48.024;11.726;2024-03-02T13:00:18;12.40;92.10
9537;DHT22;4807;48.024;11.726;2024-03-02T13:03:30;12.40;91.80
9537;DHT22;4807;48.024;11.726;2024-03-02T13:06:39;12.40;92.50
9537;DHT22;4807;48.024;11.726;2024-03-02T13:09:49;12.40;92.40
9537;DHT22;4807;48.024;11.726;2024-03-02T13:13:00;12.40;93.00
9537;DHT22;4807;48.024;11.726;2024-03-02T13:16:10;12.30;93.20
9537;DHT22;4807;48.024;11.726;2024-03-02T13:19:19;12.20;93.60
9537;DHT22;4807;48.024;11.726;2024-03-02T13:22:27;12.10;94.20
9537;DHT22;4807;48.024;11.726;2024-03-02T13:25:36;12.10;94.30
9537;DHT22;4807;48.024;11.726;2024-03-02T13:28:46;12.10;94.60
9537;DHT22;4807;48.024;11.726;2024-03-02T13:31:55;12.10;94.30
9537;DHT22;4807;48.024;11.726;2024-03-02T13:35:05;12.20;93.90
9537;DHT22;4807;48.024;11.726;2024-03-02T13:38:14;12.10;93.90
9537;DHT22;4807;48.024;11.726;2024-03-02T13:41:27;12.10;94.20
9537;DHT22;4807;48.024;11.726;2024-03-02T13:44:37;12.00;94.60
9537;DHT22;4807;48.024;11.726;2024-03-02T13:47:46;12.10;94.40
9537;DHT22;4807;48.024;11.726;2024-03-02T13:50:58;12.10;94.40
9537;DHT22;4807;48.024;11.726;2024-03-02T13:54:06;12.00;94.70
9537;DHT22;4807;48.024;11.726;2024-03-02T13:57:15;12.00;93.90
9537;DHT22;4807;48.024;11.726;2024-03-02T14:00:32;12.10;93.20
9537;DHT22;4807;48.024;11.726;2024-03-02T14:03:41;12.10;92.00
9537;DHT22;4807;48.024;11.726;2024-03-02T14:06:49;12.10;92.30
9537;DHT22;4807;48.024;11.726;2024-03-02T14:13:07;12.10;91.70
9537;DHT22;4807;48.024;11.726;2024-03-02T14:16:17;12.10;92.20
9537;DHT22;4807;48.024;11.726;2024-03-02T14:19:26;12.00;92.40
9537;DHT22;4807;48.024;11.726;2024-03-02T14:22:35;11.90;92.40
9537;DHT22;4807;48.024;11.726;2024-03-02T14:25:44;11.90;93.00
9537;DHT22;4807;48.024;11.726;2024-03-02T14:28:53;11.90;93.60
9537;DHT22;4807;48.024;11.726;2024-03-02T14:32:06;11.90;93.60
9537;DHT22;4807;48.024;11.726;2024-03-02T14:35:14;11.90;93.60
9537;DHT22;4807;48.024;11.726;2024-03-02T14:38:23;11.90;93.90
9537;DHT22;4807;48.024;11.726;2024-03-02T14:41:31;11.90;93.90
9537;DHT22;4807;48.024;11.726;2024-03-02T14:44:40;11.90;94.20
9537;DHT22;4807;48.024;11.726;2024-03-02T14:47:50;12.00;94.40
9537;DHT22;4807;48.024;11.726;2024-03-02T14:51:00;12.00;94.50
9537;DHT22;4807;48.024;11.726;2024-03-02T14:54:09;12.00;94.80
9537;DHT22;4807;48.024;11.726;2024-03-02T14:57:17;12.10;94.80
9537;DHT22;4807;48.024;11.726;2024-03-02T15:00:25;12.00;94.90
9537;DHT22;4807;48.024;11.726;2024-03-02T15:03:36;12.00;95.10
9537;DHT22;4807;48.024;11.726;2024-03-02T15:06:44;12.00;95.60
9537;DHT22;4807;48.024;11.726;2024-03-02T15:09:53;11.90;95.60
9537;DHT22;4807;48.024;11.726;2024-03-02T15:13:02;12.00;95.70
9537;DHT22;4807;48.024;11.726;2024-03-02T15:16:14;12.00;95.90
9537;DHT22;4807;48.024;11.726;2024-03-02T15:19:24;11.90;96.10
9537;DHT22;4807;48.024;11.726;2024-03-02T15:22:33;11.80;96.20
9537;DHT22;4807;48.024;11.726;2024-03-02T15:25:42;11.80;96.00
9537;DHT22;4807;48.024;11.726;2024-03-02T15:28:51;11.70;96.10
9537;DHT22;4807;48.024;11.726;2024-03-02T15:32:03;11.70;96.40
9537;DHT22;4807;48.024;11.726;2024-03-02T15:35:15;11.70;96.70
9537;DHT22;4807;48.024;11.726;2024-03-02T15:38:24;11.60;96.80
9537;DHT22;4807;48.024;11.726;2024-03-02T15:41:42;11.60;96.70
9537;DHT22;4807;48.024;11.726;2024-03-02T15:44:52;11.50;96.80
9537;DHT22;4807;48.024;11.726;2024-03-02T15:48:01;11.50;96.90
9537;DHT22;4807;48.024;11.726;2024-03-02T15:51:11;11.50;96.40
9537;DHT22;4807;48.024;11.726;2024-03-02T15:54:20;11.40;96.20
9537;DHT22;4807;48.024;11.726;2024-03-02T15:57:29;11.30;96.50
9537;DHT22;4807;48.024;11.726;2024-03-02T16:00:37;11.30;96.90
9537;DHT22;4807;48.024;11.726;2024-03-02T16:03:46;11.20;97.30
9537;DHT22;4807;48.024;11.726;2024-03-02T16:06:59;11.20;97.60
9537;DHT22;4807;48.024;11.726;2024-03-02T16:10:08;11.10;97.70
9537;DHT22;4807;48.024;11.726;2024-03-02T16:13:17;11.00;98.00
9537;DHT22;4807;48.024;11.726;2024-03-02T16:16:25;11.00;98.10
9537;DHT22;4807;48.024;11.726;2024-03-02T16:19:33;10.90;98.40
9537;DHT22;4807;48.024;11.726;2024-03-02T16:22:47;10.80;98.60
9537;DHT22;4807;48.024;11.726;2024-03-02T16:25:55;10.70;98.80
9537;DHT22;4807;48.024;11.726;2024-03-02T16:29:04;10.50;98.90
9537;DHT22;4807;48.024;11.726;2024-03-02T16:32:13;10.40;99.10
9537;DHT22;4807;48.024;11.726;2024-03-02T16:35:24;10.30;99.40
9537;DHT22;4807;48.024;11.726;2024-03-02T16:38:34;10.10;99.90
9537;DHT22;4807;48.024;11.726;2024-03-02T16:41:43;9.90;99.90
9537;DHT22;4807;48.024;11.726;2024-03-02T16:44:54;9.70;99.90
9537;DHT22;4807;48.024;11.726;2024-03-02T16:48:04;9.60;99.90
9537;DHT22;4807;48.024;11.726;2024-03-02T16:51:13;9.60;99.90
9537;DHT22;4807;48.024;11.726;2024-03-02T16:54:23;9.50;99.90
9537;DHT22;4807;48.024;11.726;2024-03-02T16:57:31;9.30;99.90
9537;DHT22;4807;48.024;11.726;2024-03-02T17:00:40;9.20;99.90
9537;DHT22;4807;48.024;11.726;2024-03-02T17:03:50;9.10;99.90
9537;DHT22;4807;48.024;11.726;2024-03-02T17:06:58;8.90;99.90
9537;DHT22;4807;48.024;11.726;2024-03-02T17:10:09;8.80;99.90
9537;DHT22;4807;48.024;11.726;2024-03-02T17:13:18;8.70;99.90
9537;DHT22;4807;48.024;11.726;2024-03-02T17:16:26;8.50;99.90
9537;DHT22;4807;48.024;11.726;2024-03-02T17:19:35;8.50;99.90
9537;DHT22;4807;48.024;11.726;2024-03-02T17:22:49;8.40;99.90
9537;DHT22;4807;48.024;11.726;2024-03-02T17:25:59;8.20;99.90
9537;DHT22;4807;48.024;11.726;2024-03-02T17:29:08;8.10;99.90
9537;DHT22;4807;48.024;11.726;2024-03-02T17:32:17;8.00;99.90
9537;DHT22;4807;48.024;11.726;2024-03-02T17:35:26;8.00;99.90
9537;DHT22;4807;48.024;11.726;2024-03-02T17:38:35;10.60;99.90
9537;DHT22;4807;48.024;11.726;2024-03-02T17:41:44;7.90;99.90
9537;DHT22;4807;48.024;11.726;2024-03-02T17:44:53;7.80;99.90
9537;DHT22;4807;48.024;11.726;2024-03-02T17:48:02;7.80;99.90
9537;DHT22;4807;48.024;11.726;2024-03-02T17:51:10;7.80;99.90
9537;DHT22;4807;48.024;11.726;2024-03-02T17:54:19;7.80;99.90
9537;DHT22;4807;48.024;11.726;2024-03-02T17:57:29;7.80;99.90
9537;DHT22;4807;48.024;11.726;2024-03-02T18:00:38;7.70;99.90
9537;DHT22;4807;48.024;11.726;2024-03-02T18:03:47;7.60;99.90
9537;DHT22;4807;48.024;11.726;2024-03-02T18:06:56;7.70;99.90
9537;DHT22;4807;48.024;11.726;2024-03-02T18:10:06;7.50;99.90
9537;DHT22;4807;48.024;11.726;2024-03-02T18:13:17;7.50;99.90
9537;DHT22;4807;48.024;11.726;2024-03-02T18:16:25;7.40;99.90
9537;DHT22;4807;48.024;11.726;2024-03-02T18:19:33;7.20;99.90
9537;DHT22;4807;48.024;11.726;2024-03-02T18:22:42;7.10;99.90
9537;DHT22;4807;48.024;11.726;2024-03-02T18:25:50;7.20;99.90
9537;DHT22;4807;48.024;11.726;2024-03-02T18:29:00;7.20;99.90
9537;DHT22;4807;48.024;11.726;2024-03-02T18:32:09;7.00;99.90
9537;DHT22;4807;48.024;11.726;2024-03-02T18:35:20;6.90;99.90
9537;DHT22;4807;48.024;11.726;2024-03-02T18:38:28;6.80;99.90
9537;DHT22;4807;48.024;11.726;2024-03-02T18:41:38;6.70;99.90
9537;DHT22;4807;48.024;11.726;2024-03-02T18:44:47;6.50;99.90
9537;DHT22;4807;48.024;11.726;2024-03-02T18:47:56;6.40;99.90
9537;DHT22;4807;48.024;11.726;2024-03-02T18:51:08;6.30;99.90
9537;DHT22;4807;48.024;11.726;2024-03-02T18:54:17;6.30;99.90
9537;DHT22;4807;48.024;11.726;2024-03-02T18:57:26;6.20;99.90
9537;DHT22;4807;48.024;11.726;2024-03-02T19:00:36;6.10;99.90
9537;DHT22;4807;48.024;11.726;2024-03-02T19:03:45;6.10;99.90
9537;DHT22;4807;48.024;11.726;2024-03-02T19:06:53;6.10;99.90
9537;DHT22;4807;48.024;11.726;2024-03-02T19:10:03;6.10;99.90
9537;DHT22;4807;48.024;11.726;2024-03-02T19:13:14;6.00;99.90
9537;DHT22;4807;48.024;11.726;2024-03-02T19:16:25;6.00;99.90
9537;DHT22;4807;48.024;11.726;2024-03-02T19:19:34;6.00;99.90
9537;DHT22;4807;48.024;11.726;2024-03-02T19:22:44;6.00;99.90
9537;DHT22;4807;48.024;11.726;2024-03-02T19:26:09;6.20;99.90
9537;DHT22;4807;48.024;11.726;2024-03-02T19:29:23;5.90;99.90
9537;DHT22;4807;48.024;11.726;2024-03-02T19:32:37;5.80;99.90
9537;DHT22;4807;48.024;11.726;2024-03-02T19:35:46;5.80;99.90
9537;DHT22;4807;48.024;11.726;2024-03-02T19:38:55;5.70;99.90
9537;DHT22;4807;48.024;11.726;2024-03-02T19:42:08;5.70;99.90
9537;DHT22;4807;48.024;11.726;2024-03-02T19:45:17;5.80;99.90
9537;DHT22;4807;48.024;11.726;2024-03-02T19:48:28;5.70;99.90
9537;DHT22;4807;48.024;11.726;2024-03-02T19:51:37;5.50;99.90
9537;DHT22;4807;48.024;11.726;2024-03-02T19:54:46;5.50;99.90
9537;DHT22;4807;48.024;11.726;2024-03-02T19:57:57;5.40;99.90
9537;DHT22;4807;48.024;11.726;2024-03-02T20:01:06;5.30;99.90
9537;DHT22;4807;48.024;11.726;2024-03-02T20:04:17;5.30;99.90
9537;DHT22;4807;48.024;11.726;2024-03-02T20:07:31;5.40;99.90
9537;DHT22;4807;48.024;11.726;2024-03-02T20:10:41;5.50;99.90
9537;DHT22;4807;48.024;11.726;2024-03-02T20:13:53;5.60;99.90
9537;DHT22;4807;48.024;11.726;2024-03-02T20:17:02;5.60;99.90
9537;DHT22;4807;48.024;11.726;2024-03-02T20:20:14;5.60;99.90
9537;DHT22;4807;48.024;11.726;2024-03-02T20:23:22;5.60;99.90
9537;DHT22;4807;48.024;11.726;2024-03-02T20:26:31;5.50;99.90
9537;DHT22;4807;48.024;11.726;2024-03-02T20:29:40;5.50;99.90
9537;DHT22;4807;48.024;11.726;2024-03-02T20:32:49;5.50;99.90
9537;DHT22;4807;48.024;11.726;2024-03-02T20:35:59;5.40;99.90
9537;DHT22;4807;48.024;11.726;2024-03-02T20:39:10;5.40;99.90